createdAt,value
2023-01-30T00:00:41.963Z,100542.59
2023-01-30T00:04:43.527Z,100543.44
2023-01-30T00:08:45.365Z,100525.09
2023-01-30T00:12:46.999Z,100523.28
2023-01-30T00:16:48.516Z,100532.88
2023-01-30T00:20:58.963Z,100511.13
2023-01-30T00:25:00.612Z,100512.75
2023-01-30T00:29:02.260Z,100507.38
2023-01-30T00:33:05.442Z,100508.22
2023-01-30T00:37:08.573Z,100496.84
2023-01-30T00:41:10.734Z,100484.78
2023-01-30T00:45:31.412Z,100478.59
2023-01-30T00:49:33.235Z,100468.97
2023-01-30T00:53:34.968Z,100454.19
2023-01-30T00:57:36.467Z,100449.78
2023-01-30T01:01:38.199Z,100423.50
2023-01-30T01:05:39.893Z,100438.38
2023-01-30T01:09:41.626Z,100440.03
2023-01-30T01:13:43.280Z,100434.81
2023-01-30T01:17:44.748Z,100422.59
2023-01-30T01:21:47.045Z,100422.50
2023-01-30T01:25:48.577Z,100416.25
2023-01-30T01:29:50.261Z,100402.25
2023-01-30T01:33:52.963Z,100377.03
2023-01-30T01:37:55.298Z,100363.16
2023-01-30T01:41:56.853Z,100348.31
2023-01-30T01:46:22.417Z,100355.34
2023-01-30T01:50:29.768Z,100344.25
2023-01-30T01:54:48.961Z,100342.59
2023-01-30T01:58:55.577Z,100327.72
2023-01-30T02:03:00.013Z,100296.44
2023-01-30T02:07:01.864Z,100280.00
2023-01-30T02:11:16.581Z,100245.38
2023-01-30T02:15:20.683Z,100236.75
2023-01-30T02:19:46.378Z,100238.56
2023-01-30T02:24:27.757Z,100234.31
2023-01-30T02:29:01.571Z,100237.66
2023-01-30T02:33:24.915Z,100209.72
2023-01-30T02:38:00.208Z,100224.50
2023-01-30T02:42:24.980Z,100226.13
2023-01-30T02:46:37.620Z,100228.66
2023-01-30T02:50:45.495Z,100238.91
2023-01-30T02:54:47.134Z,100220.97
2023-01-30T02:58:54.610Z,100195.47
2023-01-30T03:03:31.997Z,100181.38
2023-01-30T03:07:45.867Z,100172.31
2023-01-30T03:12:03.677Z,100151.13
2023-01-30T03:16:15.366Z,100155.31
2023-01-30T03:20:20.569Z,100147.31
2023-01-30T03:24:22.617Z,100131.38
2023-01-30T03:28:24.846Z,100106.06
2023-01-30T03:32:26.480Z,100076.06
2023-01-30T03:36:28.215Z,100088.44
2023-01-30T03:40:31.495Z,100084.13
2023-01-30T03:44:33.743Z,100069.31
2023-01-30T03:48:35.372Z,100066.88
2023-01-30T03:52:37.144Z,100034.81
2023-01-30T03:56:42.543Z,100050.38
2023-01-30T04:00:44.444Z,100051.06
2023-01-30T04:04:46.225Z,100053.88
2023-01-30T04:08:48.482Z,100044.63
2023-01-30T04:13:02.628Z,100057.63
2023-01-30T04:17:06.085Z,100028.84
2023-01-30T04:21:26.558Z,100029.47
2023-01-30T04:25:28.876Z,100014.38
2023-01-30T04:29:31.166Z,100021.44
2023-01-30T04:33:35.791Z,100008.97
2023-01-30T04:37:39.149Z,100000.97
2023-01-30T04:41:41.636Z,99998.06
2023-01-30T04:45:45.587Z,99995.97
2023-01-30T04:49:47.087Z,99995.31
2023-01-30T04:53:50.311Z,99981.66
2023-01-30T04:57:51.988Z,99963.03
2023-01-30T05:01:53.642Z,99950.34
2023-01-30T05:05:55.328Z,99950.91
2023-01-30T05:09:56.829Z,99943.69
2023-01-30T05:13:59.335Z,99920.97
2023-01-30T05:18:01.095Z,99919.19
2023-01-30T05:22:02.794Z,99899.78
2023-01-30T05:26:04.614Z,99901.38
2023-01-30T05:30:07.000Z,99880.16
2023-01-30T05:34:12.109Z,99882.53
2023-01-30T05:38:13.644Z,99869.28
2023-01-30T05:42:15.333Z,99871.72
2023-01-30T05:46:17.348Z,99855.00
2023-01-30T05:50:18.983Z,99859.09
2023-01-30T05:54:20.983Z,99847.69
2023-01-30T05:58:22.863Z,99851.03
2023-01-30T06:02:24.498Z,99828.91
2023-01-30T06:06:26.201Z,99836.66
2023-01-30T06:10:27.756Z,99830.69
2023-01-30T06:14:29.389Z,99846.28
2023-01-30T06:18:30.939Z,99836.47
2023-01-30T06:22:32.430Z,99843.25
2023-01-30T06:26:34.238Z,99835.34
2023-01-30T06:30:35.830Z,99830.13
2023-01-30T06:34:37.538Z,99813.13
2023-01-30T06:38:39.077Z,99824.59
2023-01-30T06:42:48.271Z,99803.72
2023-01-30T06:46:49.777Z,99807.28
2023-01-30T06:50:51.400Z,99819.69
2023-01-30T06:54:52.900Z,99826.78
2023-01-30T06:58:54.657Z,99830.31
2023-01-30T07:02:56.171Z,99809.19
2023-01-30T07:06:57.962Z,99812.56
2023-01-30T07:10:59.482Z,99823.38
2023-01-30T07:15:01.118Z,99830.47
2023-01-30T07:19:02.656Z,99821.22
2023-01-30T07:23:04.389Z,99810.06
2023-01-30T07:27:10.227Z,99798.72
2023-01-30T07:31:11.883Z,99802.66
2023-01-30T07:35:13.486Z,99805.59
2023-01-30T07:39:15.134Z,99781.63
2023-01-30T07:43:16.795Z,99778.75
2023-01-30T07:47:20.093Z,99770.41
2023-01-30T07:51:21.788Z,99781.28
2023-01-30T07:55:23.318Z,99781.63
2023-01-30T07:59:24.969Z,99785.53
2023-01-30T08:03:26.713Z,99776.78
2023-01-30T08:07:28.350Z,99777.69
2023-01-30T08:11:29.973Z,99767.19
2023-01-30T08:15:33.456Z,99769.31
2023-01-30T08:19:35.123Z,99748.91
2023-01-30T08:23:36.782Z,99767.75
2023-01-30T08:27:38.293Z,99759.66
2023-01-30T08:31:39.933Z,99785.78
2023-01-30T08:35:41.937Z,99754.44
2023-01-30T08:39:43.558Z,99770.94
2023-01-30T08:43:45.278Z,99758.19
2023-01-30T08:47:46.831Z,99746.75
2023-01-30T08:51:48.419Z,99752.72
2023-01-30T08:55:53.867Z,99754.25
2023-01-30T08:59:55.432Z,99749.88
2023-01-30T09:03:57.188Z,99769.88
2023-01-30T09:07:58.834Z,99752.09
2023-01-30T09:12:00.332Z,99758.00
2023-01-30T09:16:01.895Z,99754.25
2023-01-30T09:20:06.444Z,99740.88
2023-01-30T09:24:08.326Z,99758.81
2023-01-30T09:28:09.884Z,99761.25
2023-01-30T09:32:11.413Z,99749.63
2023-01-30T09:36:12.969Z,99751.53
2023-01-30T09:40:17.577Z,99758.84
2023-01-30T09:44:32.854Z,99752.03
2023-01-30T09:48:44.212Z,99749.91
2023-01-30T09:53:21.341Z,99750.03
2023-01-30T09:57:25.733Z,99742.00
2023-01-30T10:01:44.367Z,99721.94
2023-01-30T10:05:48.998Z,99718.19
2023-01-30T10:10:25.719Z,99695.16
2023-01-30T10:15:04.624Z,99682.88
2023-01-30T10:19:50.175Z,99679.03
2023-01-30T10:24:21.356Z,99678.53
2023-01-30T10:28:28.034Z,99688.34
2023-01-30T10:32:43.257Z,99662.53
2023-01-30T10:37:00.392Z,99698.22
2023-01-30T10:41:13.813Z,99695.94
2023-01-30T10:45:20.892Z,99704.69
2023-01-30T10:49:38.937Z,99695.34
2023-01-30T10:53:53.729Z,99707.59
2023-01-30T10:58:17.060Z,99734.03
2023-01-30T11:02:38.167Z,99710.84
2023-01-30T11:06:40.576Z,99721.28
2023-01-30T11:10:42.118Z,99704.66
2023-01-30T11:14:56.340Z,99700.69
2023-01-30T11:19:20.120Z,99698.56
2023-01-30T11:23:32.255Z,99702.72
2023-01-30T11:27:35.182Z,99692.66
2023-01-30T11:31:41.851Z,99694.97
2023-01-30T11:35:59.782Z,99698.38
2023-01-30T11:40:17.482Z,99685.97
2023-01-30T11:44:26.160Z,99690.31
2023-01-30T11:48:33.934Z,99693.09
2023-01-30T11:52:53.019Z,99685.06
2023-01-30T11:57:01.438Z,99674.75
2023-01-30T12:01:05.098Z,99688.75
2023-01-30T12:05:30.498Z,99687.63
2023-01-30T12:09:40.757Z,99657.75
2023-01-30T12:13:45.399Z,99656.38
2023-01-30T12:18:03.734Z,99638.84
2023-01-30T12:22:29.041Z,99636.28
2023-01-30T12:26:37.240Z,99607.50
2023-01-30T12:30:47.592Z,99616.19
2023-01-30T12:34:50.743Z,99596.75
2023-01-30T12:39:13.142Z,99611.28
2023-01-30T12:43:29.272Z,99640.97
2023-01-30T12:47:57.742Z,99598.00
2023-01-30T12:52:25.222Z,99602.03
2023-01-30T12:56:39.001Z,99600.09
2023-01-30T13:01:09.810Z,99612.91
2023-01-30T13:05:34.730Z,99632.78
2023-01-30T13:09:48.475Z,99623.50
2023-01-30T13:14:02.013Z,99616.88
2023-01-30T13:18:18.415Z,99597.09
2023-01-30T13:22:31.137Z,99597.44
2023-01-30T13:26:36.317Z,99611.38
2023-01-30T13:30:41.230Z,99597.25
2023-01-30T13:34:46.090Z,99591.22
2023-01-30T13:39:02.908Z,99593.69
2023-01-30T13:43:28.516Z,99603.19
2023-01-30T13:47:50.546Z,99582.53
2023-01-30T13:52:18.631Z,99574.75
2023-01-30T13:56:40.663Z,99583.94
2023-01-30T14:00:55.334Z,99593.88
2023-01-30T14:04:58.370Z,99585.94
2023-01-30T14:09:05.310Z,99610.97
2023-01-30T14:13:07.039Z,99615.56
2023-01-30T14:17:12.805Z,99612.34
2023-01-30T14:21:25.372Z,99602.16
2023-01-30T14:25:30.083Z,99613.00
2023-01-30T14:29:53.152Z,99609.22
2023-01-30T14:33:54.689Z,99630.78
2023-01-30T14:38:20.065Z,99624.56
2023-01-30T14:42:29.930Z,99610.16
2023-01-30T14:46:31.485Z,99612.72
2023-01-30T14:50:33.913Z,99612.59
2023-01-30T14:54:43.711Z,99599.69
2023-01-30T14:59:00.568Z,99603.91
2023-01-30T15:03:09.373Z,99612.03
2023-01-30T15:07:22.811Z,99619.94
2023-01-30T15:11:32.031Z,99616.03
2023-01-30T15:15:45.046Z,99628.78
2023-01-30T15:20:12.942Z,99627.88
2023-01-30T15:24:21.581Z,99636.09
2023-01-30T15:28:49.518Z,99641.13
2023-01-30T15:33:08.816Z,99642.94
2023-01-30T15:37:31.194Z,99660.59
2023-01-30T15:41:40.433Z,99674.84
2023-01-30T15:45:43.470Z,99701.28
2023-01-30T15:49:54.096Z,99702.03
2023-01-30T15:53:57.738Z,99725.19
2023-01-30T15:58:05.957Z,99737.25
2023-01-30T16:02:34.947Z,99734.13
2023-01-30T16:06:38.015Z,99723.38
2023-01-30T16:10:46.802Z,99733.09
2023-01-30T16:14:48.356Z,99743.28
2023-01-30T16:18:55.952Z,99726.91
2023-01-30T16:22:57.929Z,99738.00
2023-01-30T16:27:03.123Z,99733.16
2023-01-30T16:31:07.392Z,99748.19
2023-01-30T16:35:43.646Z,99734.25
2023-01-30T16:39:48.402Z,99731.56
2023-01-30T16:44:08.181Z,99749.47
2023-01-30T16:48:16.335Z,99749.19
2023-01-30T16:52:22.980Z,99753.38
2023-01-30T16:56:24.865Z,99754.88
2023-01-30T17:00:36.522Z,99758.72
2023-01-30T17:04:41.194Z,99762.41
2023-01-30T17:08:48.190Z,99778.91
2023-01-30T17:12:49.996Z,99774.78
2023-01-30T17:17:06.478Z,99797.06
2023-01-30T17:21:12.833Z,99781.88
2023-01-30T17:25:24.809Z,99782.25
2023-01-30T17:29:41.960Z,99788.00
2023-01-30T17:33:44.342Z,99785.03
2023-01-30T17:37:53.249Z,99776.28
2023-01-30T17:42:01.581Z,99786.47
2023-01-30T17:46:03.126Z,99786.91
2023-01-30T17:50:05.677Z,99822.66
2023-01-30T17:54:07.237Z,99821.38
2023-01-30T17:58:16.077Z,99809.19
2023-01-30T18:02:17.769Z,99832.56
2023-01-30T18:06:19.308Z,99837.06
2023-01-30T18:10:21.514Z,99835.28
2023-01-30T18:14:23.849Z,99856.97
2023-01-30T18:18:26.284Z,99868.03
2023-01-30T18:22:27.954Z,99872.38
2023-01-30T18:26:30.142Z,99865.41
2023-01-30T18:30:31.805Z,99879.25
2023-01-30T18:34:33.568Z,99877.22
2023-01-30T18:38:35.760Z,99887.50
2023-01-30T18:42:37.354Z,99910.16
2023-01-30T18:46:39.050Z,99907.06
2023-01-30T18:50:40.805Z,99910.44
2023-01-30T18:54:43.189Z,99930.59
2023-01-30T18:58:44.910Z,99944.53
2023-01-30T19:02:50.977Z,99945.97
2023-01-30T19:06:54.616Z,99957.97
2023-01-30T19:11:16.642Z,99965.66
2023-01-30T19:15:18.461Z,99977.41
2023-01-30T19:19:20.128Z,99990.56
2023-01-30T19:23:26.940Z,99992.16
2023-01-30T19:27:28.497Z,99992.16
2023-01-30T19:31:30.144Z,100013.19
2023-01-30T19:35:31.686Z,100014.06
2023-01-30T19:39:33.331Z,100039.41
2023-01-30T19:43:37.535Z,100038.28
2023-01-30T19:47:39.048Z,100043.59
2023-01-30T19:51:41.673Z,100049.69
2023-01-30T19:55:49.275Z,100058.22
2023-01-30T19:59:50.788Z,100080.16
2023-01-30T20:03:52.499Z,100084.56
2023-01-30T20:07:54.183Z,100075.06
2023-01-30T20:11:56.072Z,100086.38
2023-01-30T20:16:06.117Z,100100.41
2023-01-30T20:20:10.353Z,100108.25
2023-01-30T20:24:13.639Z,100105.66
2023-01-30T20:28:15.319Z,100115.22
2023-01-30T20:32:16.824Z,100105.59
2023-01-30T20:36:20.227Z,100101.47
2023-01-30T20:40:21.813Z,100092.44
2023-01-30T20:44:24.183Z,100101.41
2023-01-30T20:48:25.719Z,100113.75
2023-01-30T20:52:27.261Z,100130.41
2023-01-30T20:56:44.005Z,100137.47
2023-01-30T21:00:45.798Z,100135.22
2023-01-30T21:04:47.302Z,100146.66
2023-01-30T21:08:49.358Z,100170.06
2023-01-30T21:12:50.911Z,100166.91
2023-01-30T21:16:52.464Z,100168.91
2023-01-30T21:20:54.244Z,100165.38
2023-01-30T21:24:56.006Z,100171.38
2023-01-30T21:28:57.952Z,100185.50
2023-01-30T21:32:59.948Z,100192.34
2023-01-30T21:37:20.128Z,100188.63
2023-01-30T21:41:44.358Z,100183.34
2023-01-30T21:45:45.981Z,100196.22
2023-01-30T21:49:47.596Z,100217.63
2023-01-30T21:53:49.492Z,100211.22
2023-01-30T21:57:52.244Z,100215.66
2023-01-30T22:01:53.806Z,100227.22
2023-01-30T22:05:55.627Z,100240.56
2023-01-30T22:09:57.509Z,100235.44
2023-01-30T22:13:59.038Z,100239.75
2023-01-30T22:18:00.763Z,100241.38
2023-01-30T22:22:03.255Z,100252.75
2023-01-30T22:26:05.917Z,100237.63
2023-01-30T22:30:08.581Z,100250.59
2023-01-30T22:34:10.166Z,100266.16
2023-01-30T22:38:11.728Z,100262.72
2023-01-30T22:42:13.644Z,100279.31
2023-01-30T22:46:16.926Z,100287.97
2023-01-30T22:50:18.564Z,100284.91
2023-01-30T22:54:20.169Z,100300.09
2023-01-30T22:58:21.730Z,100304.31
2023-01-30T23:02:23.398Z,100297.50
2023-01-30T23:06:25.997Z,100299.28
2023-01-30T23:10:27.542Z,100309.00
2023-01-30T23:14:29.431Z,100311.19
2023-01-30T23:18:49.620Z,100306.63
2023-01-30T23:22:51.703Z,100304.50
2023-01-30T23:26:53.223Z,100317.66
2023-01-30T23:30:55.072Z,100321.03
2023-01-30T23:34:56.647Z,100324.47
2023-01-30T23:38:59.800Z,100330.03
2023-01-30T23:43:01.342Z,100331.28
2023-01-30T23:47:02.934Z,100341.84
2023-01-30T23:51:04.881Z,100334.53
2023-01-30T23:55:07.041Z,100323.91
2023-01-30T23:59:09.455Z,100322.66
